Time;durP1;ratioP1;P1;durP2;ratioP2;P2;SDS_P1;SDS_P2;PMS_P1;PMS_P2;Temp;Humidity;BMP_temperature;BMP_pressure;BME280_temperature;BME280_humidity;BME280_pressure;Samples;Min_cycle;Max_cycle;Signal;HPM_P1;HPM_P2
2022/04/18 00:01:58;;;;;;;17.95;10.55;;;9.70;60.20;;;;;;4994818;28;20556;-76
2022/04/18 00:04:24;;;;;;;17.58;9.68;;;9.60;59.90;;;;;;4998168;28;20051;-76
2022/04/18 00:06:50;;;;;;;18.90;9.70;;;9.50;60.50;;;;;;5031415;28;20041;-77
2022/04/18 00:09:16;;;;;;;17.27;9.82;;;9.50;60.40;;;;;;5030379;28;20056;-77
2022/04/18 00:11:42;;;;;;;20.65;10.05;;;9.40;60.50;;;;;;5030566;28;20553;-77
2022/04/18 00:14:09;;;;;;;20.58;9.52;;;9.40;60.90;;;;;;5029525;28;20091;-76
2022/04/18 00:16:35;;;;;;;18.67;10.07;;;9.30;60.80;;;;;;5030940;28;20092;-76
2022/04/18 00:19:01;;;;;;;27.83;11.13;;;9.30;60.90;;;;;;5015616;28;20161;-77
2022/04/18 00:21:31;;;;;;;35.00;14.27;;;9.30;60.90;;;;;;5017011;28;20494;-77
2022/04/18 00:23:57;;;;;;;41.10;16.23;;;9.20;61.00;;;;;;5001390;28;20052;-76
2022/04/18 00:26:22;;;;;;;44.85;18.02;;;9.20;61.00;;;;;;5050512;28;20132;-76
2022/04/18 00:28:49;;;;;;;51.28;19.15;;;9.20;61.00;;;;;;5050469;28;20106;-76
2022/04/18 00:31:14;;;;;;;57.00;22.42;;;9.20;61.10;;;;;;5017270;28;20045;-76
2022/04/18 00:33:40;;;;;;;57.78;20.90;;;9.10;61.60;;;;;;5026071;28;20131;-76
2022/04/18 00:36:06;;;;;;;60.58;21.75;;;9.10;61.70;;;;;;5033275;28;20049;-78
2022/04/18 00:38:31;;;;;;;59.53;21.45;;;9.00;61.90;;;;;;5033519;28;20057;-76
2022/04/18 00:40:57;;;;;;;53.05;19.98;;;9.00;62.10;;;;;;5034402;28;20403;-77
2022/04/18 00:43:41;;;;;;;52.60;20.35;;;8.90;62.10;;;;;;4988257;28;139306;-76
2022/04/18 00:46:08;;;;;;;51.10;19.35;;;8.90;62.30;;;;;;5011281;28;20061;-77
2022/04/18 00:48:34;;;;;;;43.30;17.40;;;8.90;62.20;;;;;;5034558;28;20041;-76
2022/04/18 00:51:00;;;;;;;40.70;17.23;;;8.80;62.40;;;;;;5018898;28;20134;-77
2022/04/18 00:53:27;;;;;;;40.83;15.73;;;8.80;62.60;;;;;;5034515;28;20398;-76
2022/04/18 00:55:53;;;;;;;35.17;15.60;;;8.70;62.40;;;;;;5018972;28;20111;-77
2022/04/18 00:58:19;;;;;;;32.08;15.15;;;8.70;62.60;;;;;;5026852;28;20037;-76
2022/04/18 01:00:45;;;;;;;25.60;12.88;;;8.70;63.00;;;;;;5034635;28;20048;-76
2022/04/18 01:03:11;;;;;;;24.27;11.77;;;8.90;63.50;;;;;;5034396;28;20051;-76
2022/04/18 01:05:36;;;;;;;;;;;8.60;63.40;;;;;;4999751;28;20096;-76
2022/04/18 01:08:04;;;;;;;26.65;12.05;;;8.60;63.80;;;;;;5012718;28;19979;-76
2022/04/18 01:10:29;;;;;;;25.80;12.38;;;8.50;63.90;;;;;;5034063;28;20444;-76
2022/04/18 01:12:55;;;;;;;27.95;12.75;;;7.50;63.70;;;;;;5018335;28;20075;-77
2022/04/18 01:15:21;;;;;;;28.42;14.00;;;8.40;64.30;;;;;;5013974;28;20071;-76
2022/04/18 01:17:46;;;;;;;27.20;13.18;;;8.40;64.40;;;;;;4998926;28;20057;-76
2022/04/18 01:20:12;;;;;;;24.33;12.07;;;8.40;64.50;;;;;;5014818;28;20088;-76
2022/04/18 01:22:38;;;;;;;30.08;13.18;;;8.30;64.80;;;;;;5032654;28;20132;-76
2022/04/18 01:30:33;;;;;;;21.70;10.82;;;8.20;65.70;;;;;;5033402;28;20147;-76
2022/04/18 01:32:58;;;;;;;19.60;10.10;;;8.20;65.80;;;;;;5018176;28;20128;-77
2022/04/18 01:35:24;;;;;;;20.80;10.15;;;8.20;66.00;;;;;;5034451;28;20156;-76
2022/04/18 01:37:50;;;;;;;20.50;9.85;;;8.10;66.20;;;;;;5033982;28;20586;-76
2022/04/18 01:40:15;;;;;;;18.42;10.00;;;8.10;66.40;;;;;;5017559;28;20049;-76
2022/04/18 01:42:41;;;;;;;21.77;10.20;;;8.10;66.50;;;;;;5017749;28;20057;-76
2022/04/18 01:45:08;;;;;;;18.40;9.85;;;8.00;66.90;;;;;;5050590;28;20044;-78
2022/04/18 01:47:34;;;;;;;19.30;9.95;;;8.00;67.10;;;;;;5033667;28;20057;-76
2022/04/18 01:49:59;;;;;;;17.77;9.63;;;8.00;67.20;;;;;;5034420;28;20049;-76
2022/04/18 01:52:25;;;;;;;17.30;9.00;;;8.00;67.30;;;;;;5033901;28;20056;-76
2022/04/18 01:54:51;;;;;;;16.05;8.95;;;7.90;67.70;;;;;;5018466;28;20045;-77
2022/04/18 01:57:16;;;;;;;17.67;9.85;;;7.90;67.80;;;;;;5017640;28;20052;-76
2022/04/18 01:59:44;;;;;;;18.40;10.07;;;7.90;67.90;;;;;;5017800;28;20044;-76
2022/04/18 02:02:10;;;;;;;17.35;9.27;;;7.90;68.40;;;;;;5034076;28;20127;-78
2022/04/18 02:04:36;;;;;;;16.67;9.18;;;7.80;68.80;;;;;;5034544;28;20204;-77
2022/04/18 02:07:02;;;;;;;15.50;9.20;;;7.80;69.10;;;;;;5034936;28;20045;-76
2022/04/18 02:09:28;;;;;;;18.85;10.23;;;7.80;70.00;;;;;;5033611;28;20093;-76
2022/04/18 02:11:54;;;;;;;16.67;9.35;;;7.80;69.50;;;;;;5017693;28;20084;-77
2022/04/18 02:14:19;;;;;;;19.67;9.30;;;7.70;69.60;;;;;;5032031;28;20048;-77
2022/04/18 02:16:45;;;;;;;20.92;9.60;;;7.70;70.30;;;;;;5034287;28;20060;-77
2022/04/18 02:19:11;;;;;;;16.77;8.82;;;7.70;70.10;;;;;;5017810;28;20056;-79
2022/04/18 02:21:37;;;;;;;18.10;9.50;;;7.70;70.40;;;;;;5018087;28;20502;-76
2022/04/18 02:24:02;;;;;;;19.10;9.13;;;7.70;70.90;;;;;;5033974;28;20053;-76
2022/04/18 02:26:28;;;;;;;16.73;9.73;;;7.60;71.40;;;;;;5017411;28;20095;-76
2022/04/18 02:28:54;;;;;;;18.17;9.50;;;7.60;72.00;;;;;;5017258;28;20037;-76
2022/04/18 02:31:19;;;;;;;20.92;9.40;;;7.60;72.10;;;;;;5016458;28;20128;-77
2022/04/18 02:33:45;;;;;;;16.95;9.18;;;7.60;72.70;;;;;;5034383;28;20052;-77
2022/04/18 02:36:10;;;;;;;19.27;8.63;;;7.50;72.60;;;;;;5033916;28;20041;-79
2022/04/18 02:38:36;;;;;;;16.02;9.25;;;7.50;72.80;;;;;;5009181;28;20088;-76
2022/04/18 02:41:02;;;;;;;16.10;9.00;;;7.40;73.70;;;;;;5017111;28;20055;-76
2022/04/18 02:43:28;;;;;;;18.67;9.60;;;7.40;73.80;;;;;;4998880;28;20067;-77
2022/04/18 02:45:53;;;;;;;17.85;9.20;;;7.30;74.60;;;;;;4997765;28;20114;-76
2022/04/18 02:48:19;;;;;;;18.10;9.75;;;7.30;75.20;;;;;;5017098;28;20132;-76
2022/04/18 02:50:45;;;;;;;18.83;9.38;;;7.30;75.80;;;;;;5017503;28;20167;-76
2022/04/18 02:53:10;;;;;;;15.43;8.98;;;7.20;76.40;;;;;;5032069;28;20048;-77
2022/04/18 02:55:36;;;;;;;17.27;9.20;;;7.20;76.30;;;;;;5033319;28;20143;-76
2022/04/18 02:58:02;;;;;;;18.80;9.32;;;7.50;76.90;;;;;;5017200;28;20049;-76
2022/04/18 03:00:27;;;;;;;18.63;9.60;;;7.20;76.90;;;;;;5016078;28;20052;-76
2022/04/18 03:02:53;;;;;;;19.15;9.18;;;7.20;76.80;;;;;;5033767;28;20053;-76
2022/04/18 03:05:19;;;;;;;17.38;9.75;;;7.20;77.30;;;;;;5033197;28;20390;-76
2022/04/18 03:07:45;;;;;;;16.30;8.70;;;7.40;77.70;;;;;;5033343;28;20107;-76
2022/04/18 03:10:10;;;;;;;15.25;8.68;;;7.10;78.10;;;;;;5033164;28;20052;-77
2022/04/18 03:12:36;;;;;;;17.42;9.60;;;7.10;78.60;;;;;;5032727;28;20040;-76
2022/04/18 03:15:02;;;;;;;21.95;9.95;;;7.10;78.60;;;;;;4999733;28;20135;-76
2022/04/18 03:17:28;;;;;;;19.73;9.38;;;7.00;79.60;;;;;;5016188;28;20516;-76
2022/04/18 03:19:53;;;;;;;15.05;8.60;;;7.20;80.30;;;;;;5033500;28;20102;-76
2022/04/18 03:22:19;;;;;;;18.60;9.85;;;7.00;80.50;;;;;;5016143;28;20102;-77
2022/04/18 03:24:45;;;;;;;;;;;6.90;81.40;;;;;;5033493;28;20482;-76
2022/04/18 03:27:11;;;;;;;17.90;8.95;;;6.90;83.30;;;;;;5016341;28;19943;-77
2022/04/18 03:29:38;;;;;;;18.40;9.23;;;6.90;81.00;;;;;;5015583;28;20501;-76
2022/04/18 03:32:04;;;;;;;16.58;9.45;;;6.90;82.20;;;;;;5032631;28;20047;-77
2022/04/18 03:34:30;;;;;;;16.80;9.30;;;6.90;82.60;;;;;;5032706;28;20093;-77
2022/04/18 03:39:56;;;;;;;16.88;9.13;;;6.80;83.40;;;;;;5031992;28;20078;-77
2022/04/18 03:42:31;;;;;;;15.00;8.45;;;7.30;84.60;;;;;;5031965;28;20549;-77
2022/04/18 03:45:00;;;;;;;16.15;8.88;;;6.80;85.00;;;;;;5032344;28;20053;-77
2022/04/18 03:47:26;;;;;;;14.35;8.23;;;6.80;85.30;;;;;;5031956;28;20045;-76
2022/04/18 03:49:52;;;;;;;16.33;8.45;;;6.70;86.20;;;;;;5033012;28;20081;-77
2022/04/18 03:52:18;;;;;;;16.98;8.75;;;7.00;86.80;;;;;;5031789;28;20111;-78
2022/04/18 03:54:44;;;;;;;17.75;9.68;;;6.70;87.10;;;;;;5032826;28;20067;-76
2022/04/18 03:57:09;;;;;;;16.70;8.82;;;6.60;87.80;;;;;;5032437;28;20049;-77
2022/04/18 03:59:35;;;;;;;15.13;8.07;;;6.60;88.70;;;;;;5030746;28;20131;-76
2022/04/18 04:02:02;;;;;;;15.95;8.88;;;6.50;89.50;;;;;;5031626;28;20091;-77
2022/04/18 04:04:29;;;;;;;16.50;8.57;;;6.50;89.40;;;;;;5031475;28;20533;-77
2022/04/18 04:06:54;;;;;;;;;;;6.70;89.90;;;;;;5033373;28;20440;-77
2022/04/18 04:09:20;;;;;;;16.60;9.10;;;6.50;91.80;;;;;;5012610;28;19929;-77
2022/04/18 04:11:46;;;;;;;17.60;9.38;;;6.50;89.80;;;;;;5012585;28;20049;-77
2022/04/18 04:14:11;;;;;;;17.15;8.65;;;6.40;90.20;;;;;;5012136;28;20095;-77
2022/04/18 04:16:40;;;;;;;16.15;8.15;;;6.90;90.80;;;;;;4979387;28;20630;-77
2022/04/18 04:19:06;;;;;;;17.30;8.52;;;6.40;90.80;;;;;;5012879;28;20041;-76
2022/04/18 04:21:33;;;;;;;16.67;8.63;;;6.40;91.00;;;;;;4998146;28;20084;-77
2022/04/18 04:24:00;;;;;;;15.68;8.20;;;6.40;91.40;;;;;;5000485;28;20413;-77
2022/04/18 04:26:26;;;;;;;14.30;8.40;;;6.30;91.50;;;;;;5031938;28;20040;-77
2022/04/18 04:28:51;;;;;;;17.25;8.82;;;6.40;91.80;;;;;;5005718;28;20056;-77
2022/04/18 04:31:17;;;;;;;14.98;8.20;;;6.40;92.10;;;;;;5012302;28;20376;-78
2022/04/18 04:33:43;;;;;;;15.00;8.30;;;6.30;92.40;;;;;;5017907;28;20053;-77
2022/04/18 04:36:08;;;;;;;16.52;8.30;;;6.30;93.10;;;;;;5032361;28;20076;-77
2022/04/18 04:38:34;;;;;;;17.30;8.10;;;6.30;93.30;;;;;;5031382;28;20045;-77
2022/04/18 04:41:02;;;;;;;15.60;8.77;;;6.30;93.50;;;;;;5032405;28;20068;-77
2022/04/18 04:43:28;;;;;;;16.48;9.27;;;7.20;94.10;;;;;;5014160;28;20069;-77
2022/04/18 04:45:57;;;;;;;14.85;8.07;;;6.30;94.30;;;;;;5032176;28;20076;-77
2022/04/18 04:48:23;;;;;;;15.45;8.63;;;6.30;94.50;;;;;;5031887;28;20542;-77
2022/04/18 04:50:49;;;;;;;18.20;8.82;;;6.30;94.90;;;;;;5032574;28;20364;-77
2022/04/18 04:53:15;;;;;;;16.85;8.35;;;6.20;95.20;;;;;;5030803;28;20044;-77
2022/04/18 04:55:41;;;;;;;15.57;8.77;;;6.20;95.40;;;;;;5015247;28;20041;-78
2022/04/18 04:58:09;;;;;;;;;;;6.20;95.80;;;;;;4999103;28;20514;-77
2022/04/18 05:00:35;;;;;;;;;;;6.30;97.40;;;;;;5015110;28;19928;-77
2022/04/18 05:03:00;;;;;;;14.25;8.18;;;6.20;98.00;;;;;;5032269;28;19921;-77
2022/04/18 05:05:26;;;;;;;16.65;9.18;;;6.20;95.50;;;;;;5033149;28;20045;-77
2022/04/18 05:07:52;;;;;;;19.20;8.82;;;6.30;96.00;;;;;;5019185;28;20049;-78
2022/04/18 05:10:18;;;;;;;15.63;9.02;;;6.30;96.30;;;;;;5003084;28;20049;-78
2022/04/18 05:12:43;;;;;;;15.73;8.73;;;6.20;96.80;;;;;;5034979;28;20037;-77
2022/04/18 05:15:09;;;;;;;16.42;8.75;;;6.30;97.60;;;;;;5018297;28;20052;-77
2022/04/18 05:17:35;;;;;;;16.35;8.73;;;6.30;97.50;;;;;;5018467;28;20078;-78
2022/04/18 05:20:03;;;;;;;18.65;8.35;;;6.30;98.00;;;;;;5002955;28;20114;-77
2022/04/18 05:22:29;;;;;;;16.10;8.93;;;6.60;98.60;;;;;;5017862;28;20594;-78
2022/04/18 05:24:57;;;;;;;16.40;8.90;;;6.40;99.20;;;;;;5035385;28;20411;-77
2022/04/18 05:27:23;;;;;;;18.17;9.20;;;6.40;99.10;;;;;;5014909;28;20435;-79
2022/04/18 05:29:49;;;;;;;16.92;8.98;;;6.50;99.70;;;;;;5015035;28;20128;-78
2022/04/18 05:32:15;;;;;;;14.98;8.30;;;6.50;99.90;;;;;;5015226;28;20180;-78
2022/04/18 05:34:41;;;;;;;15.32;8.82;;;6.60;99.90;;;;;;5015215;28;20048;-77
2022/04/18 05:37:07;;;;;;;18.42;9.68;;;6.50;99.90;;;;;;5019607;28;20059;-78
2022/04/18 05:39:33;;;;;;;17.73;9.95;;;6.60;99.90;;;;;;5018105;28;20053;-78
2022/04/18 05:41:59;;;;;;;17.25;9.13;;;6.80;99.90;;;;;;5018260;28;20047;-78
2022/04/18 05:44:25;;;;;;;15.05;9.57;;;6.80;99.90;;;;;;5015648;28;20049;-78
2022/04/18 05:46:51;;;;;;;17.25;8.27;;;6.80;99.90;;;;;;5030782;28;20054;-78
2022/04/18 05:49:17;;;;;;;17.95;8.50;;;6.90;99.90;;;;;;5015512;28;20057;-78
2022/04/18 05:51:43;;;;;;;15.35;8.55;;;6.90;99.90;;;;;;4998152;28;20323;-78
2022/04/18 05:54:09;;;;;;;15.73;8.35;;;7.00;99.90;;;;;;5033942;28;20057;-78
2022/04/18 05:56:34;;;;;;;15.82;8.60;;;7.00;99.90;;;;;;5017776;28;20543;-78
2022/04/18 05:59:00;;;;;;;17.40;8.65;;;7.10;99.90;;;;;;5017799;28;20049;-78
2022/04/18 06:01:28;;;;;;;16.33;8.68;;;7.10;99.90;;;;;;5034043;28;20059;-78
2022/04/18 06:03:55;;;;;;;15.82;8.68;;;7.10;99.90;;;;;;5035006;28;20052;-78
2022/04/18 06:06:20;;;;;;;14.63;8.57;;;7.40;99.90;;;;;;5017942;28;20497;-78
2022/04/18 06:08:46;;;;;;;18.60;9.13;;;7.30;99.90;;;;;;5017121;28;20049;-78
2022/04/18 06:11:12;;;;;;;16.48;8.52;;;7.50;99.90;;;;;;5018076;28;20045;-78
2022/04/18 06:13:37;;;;;;;16.00;8.60;;;7.50;99.90;;;;;;5033305;28;20088;-78
2022/04/18 06:16:04;;;;;;;18.50;8.77;;;7.40;99.90;;;;;;5016655;28;20479;-78
2022/04/18 06:18:29;;;;;;;19.50;8.77;;;7.40;99.90;;;;;;5033458;28;20049;-78
2022/04/18 06:20:55;;;;;;;14.60;8.10;;;7.50;99.90;;;;;;5018121;28;20529;-78
2022/04/18 06:23:20;;;;;;;13.00;7.43;;;7.50;99.90;;;;;;5017542;28;20076;-77
2022/04/18 06:25:46;;;;;;;13.43;7.97;;;7.60;99.90;;;;;;5033462;28;20052;-77
2022/04/18 06:28:12;;;;;;;15.38;8.05;;;7.60;99.90;;;;;;5032288;28;20631;-78
2022/04/18 06:30:38;;;;;;;16.33;8.60;;;7.70;99.90;;;;;;5033389;28;20052;-77
2022/04/18 06:33:04;;;;;;;14.68;7.63;;;7.90;99.90;;;;;;5034036;28;20419;-77
2022/04/18 06:35:30;;;;;;;15.60;8.95;;;7.90;99.90;;;;;;5033780;28;20045;-78
2022/04/18 06:37:56;;;;;;;19.95;9.10;;;8.00;99.90;;;;;;5017417;28;20056;-78
2022/04/18 06:40:22;;;;;;;13.68;8.05;;;8.00;99.90;;;;;;5017461;28;20041;-78
2022/04/18 06:42:49;;;;;;;19.10;9.07;;;8.10;99.90;;;;;;5017044;28;20110;-77
2022/04/18 06:45:15;;;;;;;17.42;8.70;;;8.20;99.90;;;;;;5016627;28;20154;-78
2022/04/18 06:47:40;;;;;;;14.52;8.45;;;8.20;99.80;;;;;;5031792;28;22422;-79
2022/04/18 06:50:10;;;;;;;14.73;8.80;;;8.30;99.30;;;;;;5033758;28;20714;-77
2022/04/18 06:52:40;;;;;;;13.90;7.97;;;8.30;99.50;;;;;;5015376;28;20048;-78
2022/04/18 06:55:07;;;;;;;15.27;8.45;;;8.40;99.70;;;;;;5033035;28;20067;-78
2022/04/18 06:57:33;;;;;;;15.95;8.05;;;8.40;99.50;;;;;;5032927;28;20052;-78
2022/04/18 06:59:59;;;;;;;14.48;7.78;;;8.50;99.90;;;;;;5016495;28;20051;-78
2022/04/18 07:02:25;;;;;;;15.85;8.35;;;8.60;99.90;;;;;;5016062;28;20045;-79
2022/04/18 07:04:52;;;;;;;14.30;7.63;;;8.60;99.90;;;;;;5016052;28;20069;-78
2022/04/18 07:07:17;;;;;;;;;;;8.70;99.90;;;;;;5016824;28;20486;-78
2022/04/18 07:09:43;;;;;;;13.20;7.43;;;8.80;99.00;;;;;;5013186;28;20012;-77
2022/04/18 07:12:09;;;;;;;12.13;6.95;;;8.80;99.00;;;;;;4990924;28;20476;-78
2022/04/18 07:14:38;;;;;;;14.15;7.38;;;8.90;98.90;;;;;;5031529;28;20398;-78
2022/04/18 07:17:07;;;;;;;15.00;7.80;;;9.00;99.00;;;;;;5032575;28;20044;-78
2022/04/18 07:19:33;;;;;;;15.02;8.15;;;9.00;98.90;;;;;;5031937;28;20071;-78
2022/04/18 07:21:59;;;;;;;13.48;7.43;;;9.10;97.90;;;;;;5033372;28;20049;-78
2022/04/18 07:24:25;;;;;;;14.85;7.13;;;9.20;97.40;;;;;;5016536;28;20055;-78
2022/04/18 07:26:51;;;;;;;14.82;7.75;;;9.20;97.40;;;;;;5049160;28;20041;-78
2022/04/18 07:29:17;;;;;;;14.75;7.20;;;9.30;97.10;;;;;;5014280;28;20068;-78
2022/04/18 07:31:43;;;;;;;14.05;7.65;;;9.30;96.80;;;;;;5031217;28;20041;-78
2022/04/18 07:34:08;;;;;;;14.27;7.30;;;9.40;96.00;;;;;;5032359;28;20055;-78
2022/04/18 07:36:34;;;;;;;13.15;7.18;;;9.50;95.80;;;;;;5016056;28;20102;-78
2022/04/18 07:39:00;;;;;;;14.35;7.30;;;9.50;95.80;;;;;;5009630;28;20049;-82
2022/04/18 07:41:28;;;;;;;11.88;6.70;;;9.60;95.80;;;;;;5023498;28;20045;-78
2022/04/18 07:43:56;;;;;;;13.40;6.93;;;9.70;95.20;;;;;;5014053;28;20132;-78
2022/04/18 07:46:22;;;;;;;11.85;7.00;;;9.70;94.50;;;;;;5030891;28;20049;-78
2022/04/18 07:48:49;;;;;;;14.85;7.15;;;9.80;93.70;;;;;;5016078;28;20049;-77
2022/04/18 07:54:00;;;;;;;12.68;6.93;;;10.00;92.00;;;;;;5031801;28;20064;-77
2022/04/18 07:56:26;;;;;;;13.77;6.97;;;10.00;91.40;;;;;;5032296;28;20049;-78
2022/04/18 07:58:53;;;;;;;12.30;7.07;;;10.10;90.90;;;;;;5014293;28;20094;-78
2022/04/18 08:01:19;;;;;;;13.48;7.63;;;10.10;91.30;;;;;;5015493;28;20123;-78
2022/04/18 08:03:46;;;;;;;15.43;6.90;;;10.20;91.90;;;;;;5028522;28;20132;-78
2022/04/18 08:06:11;;;;;;;;;;;10.30;91.70;;;;;;5031120;28;20727;-78
2022/04/18 08:08:37;;;;;;;12.55;7.38;;;10.30;91.30;;;;;;5030131;28;19971;-78
2022/04/18 08:11:04;;;;;;;10.88;6.40;;;10.30;90.90;;;;;;5030740;28;20056;-79
2022/04/18 08:13:29;;;;;;;;;;;10.50;90.50;;;;;;5030305;28;20045;-78
2022/04/18 08:15:55;;;;;;;11.60;6.22;;;10.50;90.20;;;;;;5030338;28;19929;-78
2022/04/18 08:18:21;;;;;;;12.30;6.80;;;10.60;90.40;;;;;;4997324;28;20044;-78
2022/04/18 08:20:47;;;;;;;12.32;6.35;;;10.60;90.20;;;;;;5014484;28;20110;-78
2022/04/18 08:23:13;;;;;;;13.70;6.75;;;10.70;90.50;;;;;;5030932;28;20083;-78
2022/04/18 08:25:38;;;;;;;11.77;6.63;;;10.80;90.30;;;;;;5031120;28;20128;-77
2022/04/18 08:28:04;;;;;;;12.90;6.90;;;10.80;89.90;;;;;;5015525;28;20048;-78
2022/04/18 08:30:30;;;;;;;13.48;6.00;;;10.90;88.30;;;;;;5009407;28;20459;-79
2022/04/18 08:32:56;;;;;;;9.27;5.50;;;10.90;88.40;;;;;;5031064;28;20041;-80
2022/04/18 08:35:22;;;;;;;11.40;6.22;;;10.90;85.30;;;;;;5029127;28;20049;-80
2022/04/18 08:37:48;;;;;;;12.57;6.22;;;11.00;84.70;;;;;;5022132;28;20096;-79
2022/04/18 08:40:14;;;;;;;;;;;11.10;84.80;;;;;;5048339;28;20463;-79
2022/04/18 08:42:41;;;;;;;10.73;5.57;;;11.20;81.70;;;;;;5019206;28;20004;-79
2022/04/18 08:45:10;;;;;;;12.68;6.65;;;11.30;82.80;;;;;;4994077;28;20065;-80
2022/04/18 08:53:12;;;;;;;10.10;5.50;;;11.40;79.60;;;;;;5031475;28;20049;-80
2022/04/18 08:55:38;;;;;;;9.82;4.90;;;11.50;78.10;;;;;;5016176;28;20048;-79
2022/04/18 08:58:05;;;;;;;10.38;6.07;;;11.50;76.50;;;;;;5032940;28;20144;-80
2022/04/18 09:00:31;;;;;;;9.85;5.55;;;11.50;77.10;;;;;;5034660;28;20114;-80
2022/04/18 09:02:56;;;;;;;11.77;5.88;;;11.50;77.10;;;;;;5034363;28;20046;-80
2022/04/18 09:05:22;;;;;;;9.98;5.63;;;11.60;76.80;;;;;;5035102;28;20051;-80
2022/04/18 09:07:59;;;;;;;11.05;5.50;;;11.60;77.20;;;;;;5034904;28;20120;-80
2022/04/18 09:10:25;;;;;;;11.80;5.88;;;11.60;78.00;;;;;;5032532;28;20045;-80
2022/04/18 09:12:51;;;;;;;11.07;5.70;;;11.80;79.10;;;;;;5017963;28;20611;-79
2022/04/18 09:15:35;;;;;;;10.88;5.78;;;11.90;79.20;;;;;;5017204;28;20129;-79
2022/04/18 09:18:08;;;;;;;14.32;5.90;;;12.10;79.10;;;;;;5034502;28;20040;-79
2022/04/18 09:20:45;;;;;;;11.13;5.90;;;12.10;78.50;;;;;;5034863;28;20057;-79
2022/04/18 09:23:30;;;;;;;10.50;5.43;;;12.10;78.60;;;;;;5034372;28;20049;-79
2022/04/18 09:26:08;;;;;;;13.93;5.50;;;12.20;77.30;;;;;;5051048;28;20064;-79
2022/04/18 09:28:36;;;;;;;13.38;6.03;;;12.20;78.50;;;;;;5024737;28;20060;-79
2022/04/18 09:31:13;;;;;;;11.00;5.40;;;12.30;77.70;;;;;;5032563;28;20038;-80
2022/04/18 09:33:40;;;;;;;11.32;5.80;;;12.40;78.30;;;;;;5028182;28;20398;-79
2022/04/18 09:36:16;;;;;;;9.77;5.82;;;12.50;80.00;;;;;;5034580;28;20041;-80
2022/04/18 09:38:53;;;;;;;9.88;5.70;;;12.60;79.20;;;;;;5029445;28;20079;-80
2022/04/18 09:41:30;;;;;;;11.98;6.05;;;12.80;77.90;;;;;;5033325;28;20483;-79
2022/04/18 09:43:57;;;;;;;9.30;5.32;;;12.90;76.50;;;;;;5012788;28;20160;-79
2022/04/18 09:46:23;;;;;;;9.93;5.18;;;13.00;77.60;;;;;;5031997;28;20134;-80
2022/04/18 09:48:51;;;;;;;10.63;6.10;;;13.20;77.20;;;;;;5031406;28;20521;-77
2022/04/18 09:51:29;;;;;;;10.00;5.75;;;13.30;77.30;;;;;;5032122;28;20190;-78
2022/04/18 09:53:57;;;;;;;9.38;5.47;;;13.40;76.80;;;;;;5030860;28;20441;-78
2022/04/18 09:56:24;;;;;;;12.07;5.75;;;13.50;77.60;;;;;;5032496;28;20049;-78
2022/04/18 09:58:51;;;;;;;9.35;5.40;;;13.60;77.20;;;;;;5027624;28;20037;-79
2022/04/18 10:01:17;;;;;;;10.65;5.63;;;13.70;73.60;;;;;;5034106;28;20388;-79
2022/04/18 10:03:50;;;;;;;9.10;5.38;;;13.70;74.00;;;;;;5000407;28;20048;-78
2022/04/18 10:06:15;;;;;;;11.63;5.97;;;13.80;73.60;;;;;;5034873;28;20127;-78
2022/04/18 10:08:42;;;;;;;9.68;5.93;;;13.80;73.60;;;;;;5000938;28;20133;-78
2022/04/18 10:11:11;;;;;;;11.80;6.00;;;13.80;74.60;;;;;;5016779;28;20044;-78
2022/04/18 10:13:37;;;;;;;9.73;5.53;;;13.90;72.50;;;;;;5031367;28;20045;-78
2022/04/18 10:16:04;;;;;;;11.45;5.80;;;14.00;70.00;;;;;;5033023;28;20113;-78
2022/04/18 10:18:35;;;;;;;9.73;5.32;;;14.00;72.00;;;;;;5033639;28;20498;-78
2022/04/18 10:21:13;;;;;;;12.73;5.43;;;14.10;70.90;;;;;;5024069;28;20123;-79
2022/04/18 10:24:16;;;;;;;8.80;4.82;;;14.20;69.40;;;;;;5031111;28;20052;-78
2022/04/18 10:27:25;;;;;;;8.93;4.65;;;14.30;70.40;;;;;;5030758;28;20051;-77
2022/04/18 10:29:54;;;;;;;9.75;5.38;;;14.50;71.30;;;;;;5046884;28;20049;-78
2022/04/18 10:32:25;;;;;;;9.35;4.97;;;14.70;70.40;;;;;;5032493;28;20517;-77
2022/04/18 10:34:59;;;;;;;9.02;4.65;;;14.70;69.60;;;;;;5017127;28;20075;-77
2022/04/18 10:37:26;;;;;;;8.75;4.35;;;14.80;68.30;;;;;;5025954;28;20060;-77
2022/04/18 10:40:02;;;;;;;8.85;4.47;;;15.00;68.50;;;;;;5031576;28;20041;-77
2022/04/18 10:42:35;;;;;;;9.93;4.35;;;15.10;68.50;;;;;;5024259;28;20052;-77
2022/04/18 10:45:08;;;;;;;8.18;3.53;;;15.30;68.30;;;;;;5028171;28;20067;-76
2022/04/18 10:47:56;;;;;;;6.53;3.97;;;15.40;66.40;;;;;;5029383;28;20181;-77
2022/04/18 10:50:28;;;;;;;9.63;4.32;;;15.50;62.20;;;;;;5032985;28;20056;-77
2022/04/18 10:53:15;;;;;;;7.90;3.70;;;15.60;62.80;;;;;;5032349;28;20186;-78
2022/04/18 10:56:01;;;;;;;8.18;3.88;;;15.70;61.70;;;;;;5009303;28;20056;-78
2022/04/18 10:58:33;;;;;;;7.82;3.97;;;15.70;59.00;;;;;;5011908;28;20067;-78
2022/04/18 11:01:00;;;;;;;6.78;4.00;;;15.70;60.10;;;;;;5050490;28;20053;-78
2022/04/18 11:03:36;;;;;;;7.03;4.00;;;15.80;61.40;;;;;;5016323;28;20045;-77
2022/04/18 11:06:09;;;;;;;6.25;3.60;;;15.80;61.10;;;;;;5016067;28;20099;-78
2022/04/18 11:08:37;;;;;;;9.35;4.03;;;15.90;60.00;;;;;;5049052;28;20049;-78
2022/04/18 11:11:15;;;;;;;7.57;3.92;;;16.00;60.10;;;;;;5032240;28;20080;-78
2022/04/18 11:13:43;;;;;;;5.85;3.50;;;16.10;59.80;;;;;;5000290;28;20088;-78
2022/04/18 11:16:24;;;;;;;6.82;3.85;;;16.30;58.60;;;;;;5030465;28;20056;-77
2022/04/18 11:19:20;;;;;;;6.75;3.85;;;16.50;59.20;;;;;;5032408;28;20056;-77
2022/04/18 11:21:56;;;;;;;7.15;4.00;;;16.60;59.10;;;;;;5033254;28;20049;-77
2022/04/18 11:24:35;;;;;;;7.82;4.25;;;16.70;57.00;;;;;;5031346;28;20055;-78
2022/04/18 11:27:02;;;;;;;6.70;4.05;;;16.80;56.30;;;;;;5012794;28;20085;-77
2022/04/18 11:29:32;;;;;;;9.02;4.57;;;16.80;57.30;;;;;;5031406;28;20049;-77
2022/04/18 11:31:58;;;;;;;8.50;4.25;;;17.00;56.60;;;;;;5012429;28;20045;-78
2022/04/18 11:34:25;;;;;;;;;;;17.20;56.70;;;;;;5013990;28;20106;-77
2022/04/18 11:36:57;;;;;;;8.07;4.30;;;17.30;56.00;;;;;;5013011;28;19951;-78
2022/04/18 11:39:23;;;;;;;7.13;4.43;;;17.50;56.30;;;;;;4999413;28;20510;-77
2022/04/18 11:42:00;;;;;;;;;;;17.60;54.80;;;;;;5019067;28;20150;-76
2022/04/18 11:44:26;;;;;;;7.60;4.25;;;17.80;54.20;;;;;;5024387;28;19936;-76
2022/04/18 11:46:52;;;;;;;9.43;4.43;;;18.00;54.20;;;;;;5023408;28;20049;-77
2022/04/18 11:49:27;;;;;;;8.68;4.05;;;18.10;53.20;;;;;;5048567;28;20081;-76
2022/04/18 11:51:53;;;;;;;9.35;4.10;;;18.20;52.30;;;;;;5010242;28;20048;-77
2022/04/18 11:54:18;;;;;;;7.15;3.97;;;18.40;51.00;;;;;;5030104;28;20121;-77
2022/04/18 11:56:59;;;;;;;8.90;4.10;;;18.50;50.30;;;;;;5031104;28;20542;-76
2022/04/18 11:59:29;;;;;;;7.60;3.97;;;18.60;50.10;;;;;;5028348;28;20178;-78
2022/04/18 12:07:27;;;;;;;8.90;4.35;;;19.00;47.70;;;;;;5032485;28;20056;-77
2022/04/18 12:09:53;;;;;;;10.10;4.28;;;19.20;50.20;;;;;;5014177;28;20045;-77
2022/04/18 12:12:28;;;;;;;;;;;19.60;51.40;;;;;;5013940;28;20052;-77
2022/04/18 12:14:58;;;;;;;8.15;4.22;;;19.80;50.50;;;;;;5014718;28;19921;-78
2022/04/18 12:17:24;;;;;;;6.75;3.50;;;20.20;52.60;;;;;;5036391;28;20053;-78
2022/04/18 12:19:52;;;;;;;;;;;20.50;51.50;;;;;;5019659;28;20455;-78
2022/04/18 12:22:23;;;;;;;7.72;3.90;;;20.80;49.10;;;;;;5051298;28;20023;-78
2022/04/18 12:24:51;;;;;;;7.80;3.92;;;21.20;51.30;;;;;;5048496;28;20045;-78
2022/04/18 12:27:17;;;;;;;6.13;3.80;;;21.40;50.60;;;;;;5018581;28;20083;-77
2022/04/18 12:29:44;;;;;;;8.13;3.97;;;21.70;48.50;;;;;;5052548;28;20401;-77
2022/04/18 12:32:26;;;;;;;8.35;4.07;;;21.70;45.20;;;;;;5034412;28;20110;-77
2022/04/18 12:34:53;;;;;;;6.07;3.92;;;21.70;44.00;;;;;;5035461;28;20040;-79
2022/04/18 12:37:25;;;;;;;5.82;3.65;;;21.80;44.80;;;;;;5052258;28;20045;-79
2022/04/18 12:40:13;;;;;;;7.78;3.95;;;22.00;44.80;;;;;;5036480;28;20056;-77
2022/04/18 12:42:40;;;;;;;6.85;4.00;;;22.30;44.10;;;;;;5035914;28;20132;-77
2022/04/18 12:45:06;;;;;;;6.20;3.60;;;22.50;43.30;;;;;;5034249;28;20057;-77
2022/04/18 12:47:33;;;;;;;5.38;3.25;;;22.60;43.70;;;;;;5035874;28;20049;-77
2022/04/18 12:50:17;;;;;;;6.45;3.40;;;22.80;43.10;;;;;;5035675;28;20044;-77
2022/04/18 12:52:51;;;;;;;5.20;3.55;;;23.10;43.00;;;;;;5035929;28;20044;-77
2022/04/18 12:55:29;;;;;;;7.95;3.67;;;23.40;43.80;;;;;;5035414;28;20053;-77
2022/04/18 12:57:55;;;;;;;6.13;3.70;;;23.60;44.20;;;;;;5035520;28;20554;-78
2022/04/18 13:00:21;;;;;;;5.90;3.80;;;23.80;44.80;;;;;;5018959;28;20128;-77
2022/04/18 13:03:05;;;;;;;5.88;3.60;;;24.10;43.70;;;;;;5035291;28;20051;-77
2022/04/18 13:05:33;;;;;;;5.15;3.25;;;24.30;42.40;;;;;;5035854;28;20398;-77
2022/04/18 13:08:07;;;;;;;6.20;3.13;;;24.50;42.90;;;;;;5034435;28;20049;-77
2022/04/18 13:10:34;;;;;;;7.00;3.90;;;24.60;42.40;;;;;;5015907;28;20056;-77
2022/04/18 13:13:05;;;;;;;6.18;3.88;;;24.90;42.70;;;;;;5014584;28;20049;-77
2022/04/18 13:15:32;;;;;;;7.20;3.97;;;25.10;43.70;;;;;;4998838;28;20049;-78